East Wellington, Utah
Current Conditions -  °F | °C
As of 6:53 AM on Wednesday 26 Nov 2014 (Local Time) from KPUC Reporting Station
Clear Clear  
Wind Chill: 26°   Ceiling: Unl
Heat Index: 31°   Visibility: 10mi
Dew Point: 18°   Wind: 5mph
Humidity: 59%   Direction: 310°NW
Pressure: 30.34"   Gusts: NA
Location:  39.5265°N, 110.7°W
Report Text: KPUC 261353Z AUTO 31004KT 10SM CLR M01/M08 A3034 RMK AO2 SLP309 T10061078
Loading
Personal Weather Stations






























Interactive Weather Map New forecast layout! Learn more

10-Day Weather Forecast

Advertisements
Track Severe Weather on mobile